Time;durP1;ratioP1;P1;durP2;ratioP2;P2;SDS_P1;SDS_P2;PMS_P1;PMS_P2;Temp;Humidity;BMP_temperature;BMP_pressure;BME280_temperature;BME280_humidity;BME280_pressure;Samples;Min_cycle;Max_cycle;Signal;HPM_P1;HPM_P2
2022/08/05 00:02:08;;;;;;;5.28;2.55;;;;;;;-148.88;79.23;74631.78;4945022;29;20067;-86
2022/08/05 00:04:34;;;;;;;5.60;2.70;;;;;;;-148.88;79.41;74656.16;4962881;29;20034;-87
2022/08/05 00:06:59;;;;;;;6.38;2.83;;;;;;;-148.88;80.05;74662.25;4945166;29;20031;-86
2022/08/05 00:09:29;;;;;;;6.88;3.35;;;;;;;-148.88;80.23;74674.44;4945817;29;20024;-86
2022/08/05 00:11:55;;;;;;;8.20;2.90;;;;;;;-148.88;80.84;74676.47;4962078;28;20082;-86
2022/08/05 00:14:20;;;;;;;7.18;2.80;;;;;;;-148.88;80.54;74670.38;4945200;29;20031;-86
2022/08/05 00:16:46;;;;;;;6.80;3.20;;;;;;;-148.88;80.88;74660.22;4960814;29;20078;-87
2022/08/05 00:19:11;;;;;;;6.00;2.85;;;;;;;-148.88;82.15;74676.47;4959806;28;20023;-87
2022/08/05 00:21:36;;;;;;;6.78;3.00;;;;;;;-148.88;81.26;74658.19;4941726;29;20459;-86
2022/08/05 00:24:03;;;;;;;7.07;3.28;;;;;;;-148.88;81.61;74656.16;4942416;29;20027;-86
2022/08/05 00:26:28;;;;;;;6.15;2.50;;;;;;;-148.88;81.11;74648.03;4941382;29;20050;-86
2022/08/05 00:28:54;;;;;;;8.18;3.28;;;;;;;-148.88;81.73;74678.50;4941804;29;20470;-86
2022/08/05 00:31:19;;;;;;;7.65;3.15;;;;;;;-148.88;83.07;74686.63;4958473;29;20474;-86
2022/08/05 00:33:44;;;;;;;8.65;3.55;;;;;;;-148.88;83.20;74688.66;4958742;29;20549;-86
2022/08/05 00:36:10;;;;;;;7.47;3.70;;;;;;;-148.88;81.56;74708.94;4958125;29;20433;-87
2022/08/05 00:38:35;;;;;;;8.30;3.78;;;;;;;-148.88;80.91;74708.94;4940501;29;20039;-86
2022/08/05 00:41:01;;;;;;;8.27;3.67;;;;;;;-148.88;81.98;74735.34;4940864;29;20030;-85
2022/08/05 00:43:27;;;;;;;12.75;4.40;;;;;;;-148.88;83.27;74761.75;4957974;29;20032;-86
2022/08/05 00:45:53;;;;;;;7.82;3.83;;;;;;;-148.88;85.93;74798.31;4940633;29;20456;-86
2022/08/05 00:50:50;;;;;;;8.95;4.50;;;;;;;-148.88;85.17;74753.63;4994779;28;20050;-78
2022/08/05 00:53:19;;;;;;;11.75;4.53;;;;;;;-148.88;84.67;74696.78;4996365;28;20034;-77
2022/08/05 00:55:45;;;;;;;9.32;4.45;;;;;;;-148.88;85.14;74700.84;4996283;28;20460;-77
2022/08/05 00:58:11;;;;;;;9.65;4.78;;;;;;;-148.88;87.78;74706.91;4995946;28;20036;-77
2022/08/05 01:00:37;;;;;;;12.32;5.65;;;;;;;-148.88;89.60;74708.94;4995907;28;20074;-77
2022/08/05 01:03:03;;;;;;;10.73;5.13;;;;;;;-148.88;90.39;74696.78;4995869;28;20499;-77
2022/08/05 01:05:28;;;;;;;11.43;5.85;;;;;;;-148.88;90.61;74704.88;4996014;28;20019;-77
2022/08/05 01:07:55;;;;;;;13.65;6.15;;;;;;;-148.88;90.88;74704.88;4995560;28;20391;-75
2022/08/05 01:10:26;;;;;;;11.82;6.18;;;;;;;-148.88;93.09;74713.00;4995460;28;20038;-75
2022/08/05 01:12:57;;;;;;;13.85;6.07;;;;;;;-148.88;94.38;74715.03;4995533;28;20032;-75
2022/08/05 01:15:32;;;;;;;13.45;6.70;;;;;;;-148.88;94.38;74737.38;4996083;28;20018;-75
2022/08/05 01:18:05;;;;;;;12.18;6.55;;;;;;;-148.88;93.76;74743.47;4996212;28;20424;-77
2022/08/05 01:20:46;;;;;;;13.20;6.70;;;;;;;-148.88;93.10;74741.44;4996130;28;20041;-77
2022/08/05 01:23:32;;;;;;;12.70;8.73;;;;;;;-148.88;93.74;74755.66;4996350;28;20109;-77
2022/08/05 01:26:52;;;;;;;20.38;8.95;;;;;;;-148.88;95.13;74749.56;4996308;28;20108;-77
2022/08/05 01:29:26;;;;;;;18.25;9.73;;;;;;;-148.88;95.69;74757.69;4973003;28;20034;-77
2022/08/05 01:31:53;;;;;;;17.42;9.23;;;;;;;-148.88;95.65;74753.63;4994579;28;20026;-77
2022/08/05 01:34:25;;;;;;;14.77;8.52;;;;;;;-148.88;95.57;74773.94;4996714;28;20084;-77
2022/08/05 01:37:18;;;;;;;17.08;9.20;;;;;;;-148.88;95.72;74773.94;4994491;28;20026;-77
2022/08/05 01:39:45;;;;;;;16.90;8.95;;;;;;;-148.88;96.74;74786.13;4995677;28;20030;-77
2022/08/05 01:42:14;;;;;;;17.95;10.05;;;;;;;-148.88;96.98;74794.25;4995851;28;20037;-76
2022/08/05 01:44:41;;;;;;;16.88;10.43;;;;;;;-148.88;97.27;74792.22;4995184;28;20069;-76
2022/08/05 01:47:09;;;;;;;12.60;8.80;;;;;;;-148.88;96.94;74788.16;4994817;28;20113;-77
2022/08/05 01:49:35;;;;;;;18.65;9.90;;;;;;;-148.88;97.80;74784.09;4994624;28;20069;-76
2022/08/05 01:52:02;;;;;;;15.65;9.93;;;;;;;-148.88;97.07;74794.25;4995688;28;20026;-77
2022/08/05 01:54:41;;;;;;;17.77;10.40;;;;;;;-148.88;97.79;74784.09;4995546;28;20085;-77
2022/08/05 01:57:08;;;;;;;19.38;10.68;;;;;;;-148.88;97.60;74786.13;4995116;28;20057;-77
2022/08/05 01:59:35;;;;;;;21.70;11.88;;;;;;;-148.88;98.21;74792.22;4994559;28;20495;-76
2022/08/05 02:02:01;;;;;;;18.77;11.80;;;;;;;-148.88;98.36;74810.50;4994625;28;20076;-77
2022/08/05 02:04:32;;;;;;;21.45;12.13;;;;;;;-148.88;100.00;74869.38;4994498;28;20026;-77
2022/08/05 02:06:57;;;;;;;22.73;12.27;;;;;;;-148.88;100.00;74895.78;4993271;28;20018;-77
2022/08/05 02:09:23;;;;;;;22.50;12.82;;;;;;;-148.88;100.00;74924.22;4994360;28;20400;-77
2022/08/05 02:11:54;;;;;;;21.80;13.88;;;;;;;-148.88;100.00;74940.47;4994323;28;20066;-77
2022/08/05 02:14:26;;;;;;;24.08;14.48;;;;;;;-148.88;100.00;74952.63;4994617;28;20033;-77
2022/08/05 02:16:54;;;;;;;24.77;14.82;;;;;;;-148.88;100.00;74972.94;4994538;28;20477;-77
2022/08/05 02:19:31;;;;;;;27.92;14.20;;;;;;;-148.88;100.00;74972.94;4994842;28;20038;-76
2022/08/05 02:22:25;;;;;;;25.42;13.70;;;;;;;-148.88;100.00;74960.75;4994158;28;20046;-76
2022/08/05 02:24:52;;;;;;;26.38;15.18;;;;;;;-148.88;100.00;74964.81;4994317;28;20034;-77
2022/08/05 02:27:19;;;;;;;22.77;14.68;;;;;;;-148.88;100.00;74981.06;4994119;28;20498;-77
2022/08/05 02:29:46;;;;;;;26.15;14.48;;;;;;;-148.88;100.00;74983.09;4993984;28;20116;-76
2022/08/05 02:32:14;;;;;;;27.13;16.02;;;;;;;-148.88;100.00;74985.13;4994105;28;20022;-76
2022/08/05 02:34:41;;;;;;;27.20;15.82;;;;;;;-148.88;100.00;74989.19;4992738;28;20033;-76
2022/08/05 02:37:08;;;;;;;28.75;16.05;;;;;;;-148.88;100.00;74997.31;4994160;28;20046;-77
2022/08/05 02:39:38;;;;;;;30.17;16.50;;;;;;;-148.88;100.00;74997.31;4993885;28;20034;-77
2022/08/05 02:42:06;;;;;;;29.85;16.55;;;;;;;-148.88;100.00;74997.31;4992180;28;20598;-77
2022/08/05 02:44:35;;;;;;;24.95;15.70;;;;;;;-148.88;100.00;75003.41;4993863;28;20070;-77
2022/08/05 02:47:02;;;;;;;24.35;16.35;;;;;;;-148.88;100.00;75005.44;4993059;28;20061;-77
2022/08/05 02:49:34;;;;;;;25.15;15.63;;;;;;;-148.88;100.00;75003.41;4992418;28;20018;-77
2022/08/05 02:52:01;;;;;;;31.48;16.27;;;;;;;-148.88;100.00;75001.38;4994130;28;20101;-77
2022/08/05 02:54:27;;;;;;;31.05;17.73;;;;;;;-148.88;100.00;75009.50;4993677;28;20037;-77
2022/08/05 02:56:53;;;;;;;31.20;17.45;;;;;;;-148.88;100.00;75005.44;4993612;28;20105;-77
2022/08/05 02:59:21;;;;;;;33.47;18.23;;;;;;;-148.88;100.00;75009.50;4994229;28;20385;-77
2022/08/05 03:01:50;;;;;;;33.85;17.73;;;;;;;-148.88;100.00;75013.56;4993524;28;20081;-77
2022/08/05 03:04:17;;;;;;;35.45;17.42;;;;;;;-148.88;100.00;75013.56;4993695;28;20548;-77
2022/08/05 03:06:42;;;;;;;35.70;19.25;;;;;;;-148.88;100.00;75021.69;4993607;28;20026;-77
2022/08/05 03:09:12;;;;;;;30.67;17.80;;;;;;;-148.88;100.00;75005.44;4992397;28;20412;-76
2022/08/05 03:11:41;;;;;;;33.67;18.65;;;;;;;-148.88;100.00;75019.66;4993489;28;20106;-77
2022/08/05 03:14:06;;;;;;;36.08;19.70;;;;;;;-148.88;100.00;75015.59;4993500;28;20022;-77
2022/08/05 03:16:31;;;;;;;34.17;18.65;;;;;;;-148.88;100.00;75021.69;4993801;28;20025;-77
2022/08/05 03:18:59;;;;;;;34.33;18.60;;;;;;;-148.88;100.00;75029.81;4993476;28;20032;-77
2022/08/05 03:21:24;;;;;;;31.05;19.35;;;;;;;-148.88;100.00;75033.88;4992182;28;20037;-77
2022/08/05 03:23:50;;;;;;;34.55;20.17;;;;;;;-148.88;100.00;75042.00;4993536;28;20026;-77
2022/08/05 03:26:16;;;;;;;42.20;20.30;;;;;;;-148.88;100.00;75044.03;4993655;28;20046;-78
2022/08/05 03:28:41;;;;;;;34.92;20.20;;;;;;;-148.88;100.00;75042.00;4993371;28;20076;-77
2022/08/05 03:31:07;;;;;;;36.85;21.42;;;;;;;-148.88;100.00;75046.06;4993280;28;20092;-77
2022/08/05 03:33:33;;;;;;;46.25;22.48;;;;;;;-148.88;100.00;75056.22;4993676;28;20105;-77
2022/08/05 03:36:00;;;;;;;43.83;22.63;;;;;;;-148.88;100.00;75054.19;4992068;28;20022;-77
2022/08/05 03:38:26;;;;;;;39.97;22.50;;;;;;;-148.88;100.00;75046.06;4993374;28;20395;-76
2022/08/05 03:40:52;;;;;;;43.22;23.10;;;;;;;-148.88;100.00;75048.09;4993317;28;20022;-77
2022/08/05 03:43:19;;;;;;;42.55;23.30;;;;;;;-148.88;100.00;75058.25;4993193;28;20085;-77
2022/08/05 03:45:45;;;;;;;44.25;24.92;;;;;;;-148.88;100.00;75054.19;4991999;28;20019;-77
2022/08/05 03:48:11;;;;;;;45.97;23.00;;;;;;;-148.88;100.00;75050.13;4991992;28;20077;-76
2022/08/05 03:50:49;;;;;;;44.88;23.02;;;;;;;-148.88;100.00;75062.31;4993278;28;20445;-77
2022/08/05 03:53:27;;;;;;;43.55;23.48;;;;;;;-148.88;100.00;75054.19;4993169;28;20076;-77
2022/08/05 03:56:00;;;;;;;41.13;24.65;;;;;;;-148.88;100.00;75064.34;4996126;28;20435;-77
2022/08/05 03:58:28;;;;;;;45.60;24.30;;;;;;;-148.88;100.00;75066.38;4996149;28;20526;-77
2022/08/05 04:00:56;;;;;;;49.22;23.25;;;;;;;-148.88;100.00;75066.38;4996913;28;20026;-76
2022/08/05 04:03:24;;;;;;;41.78;23.35;;;;;;;-148.88;100.00;75070.44;4997197;28;20076;-76
2022/08/05 04:05:50;;;;;;;45.65;23.67;;;;;;;-148.88;100.00;75074.50;4997117;28;20054;-77
2022/08/05 04:08:15;;;;;;;39.90;22.77;;;;;;;-148.88;100.00;75062.31;4996864;28;20113;-76
2022/08/05 04:10:43;;;;;;;40.28;23.55;;;;;;;-148.88;100.00;75066.38;4996552;28;20488;-77
2022/08/05 04:13:08;;;;;;;40.47;23.20;;;;;;;-148.88;100.00;75066.38;4996528;28;20097;-77
2022/08/05 04:15:34;;;;;;;38.10;22.88;;;;;;;-148.88;100.00;75060.28;4995291;28;20022;-76
2022/08/05 04:18:02;;;;;;;41.17;24.63;;;;;;;-148.88;100.00;75058.25;4997049;28;20380;-77
2022/08/05 04:20:28;;;;;;;36.75;23.52;;;;;;;-148.88;100.00;75056.22;4996389;28;20022;-77
2022/08/05 04:22:53;;;;;;;34.45;23.10;;;;;;;-148.88;100.00;75062.31;4996356;28;20071;-77
2022/08/05 04:25:19;;;;;;;38.47;24.23;;;;;;;-148.88;100.00;75062.31;4996428;28;20083;-76
2022/08/05 04:27:44;;;;;;;35.60;23.75;;;;;;;-148.88;100.00;75070.44;4996556;28;20460;-76
2022/08/05 04:30:09;;;;;;;35.05;21.15;;;;;;;-148.88;100.00;75062.31;4996352;28;20030;-76
2022/08/05 04:32:35;;;;;;;31.60;19.52;;;;;;;-148.88;100.00;75037.94;4996113;28;20065;-77
2022/08/05 04:35:01;;;;;;;25.25;15.98;;;;;;;-148.88;100.00;75027.78;4996214;28;20030;-76
2022/08/05 04:37:26;;;;;;;24.33;14.35;;;;;;;-148.88;100.00;75037.94;4996079;28;20101;-77
2022/08/05 04:39:51;;;;;;;24.10;14.38;;;;;;;-148.88;100.00;75048.09;4995978;28;20018;-76
2022/08/05 04:42:20;;;;;;;22.05;12.90;;;;;;;-148.88;100.00;75046.06;4996022;28;20113;-77
2022/08/05 04:44:45;;;;;;;24.05;13.18;;;;;;;-148.88;100.00;75050.13;4995926;28;20081;-76
2022/08/05 04:47:11;;;;;;;24.73;12.65;;;;;;;-148.88;100.00;75070.44;4996058;28;20018;-77
2022/08/05 04:49:39;;;;;;;22.13;12.20;;;;;;;-148.88;100.00;75076.53;4995654;28;20035;-76
2022/08/05 04:52:05;;;;;;;23.35;12.77;;;;;;;-148.88;100.00;75066.38;4995839;28;20404;-76
2022/08/05 04:54:30;;;;;;;20.52;12.32;;;;;;;-148.88;100.00;75062.31;4996039;28;20030;-76
2022/08/05 04:56:56;;;;;;;21.30;12.00;;;;;;;-148.88;100.00;75064.34;4995915;28;20023;-76
2022/08/05 04:59:21;;;;;;;19.25;11.80;;;;;;;-148.88;100.00;75074.50;4996384;28;20026;-77
2022/08/05 05:01:51;;;;;;;24.88;11.85;;;;;;;-148.88;100.00;75066.38;4995665;28;20026;-76
2022/08/05 05:04:16;;;;;;;15.95;10.98;;;;;;;-148.88;100.00;75048.09;4995762;28;20034;-77
2022/08/05 05:06:42;;;;;;;17.73;9.65;;;;;;;-148.88;100.00;75029.81;4995940;28;20026;-76
2022/08/05 05:09:07;;;;;;;14.02;9.00;;;;;;;-148.88;100.00;75017.63;4995809;28;20069;-76
2022/08/05 05:11:32;;;;;;;17.05;9.50;;;;;;;-148.88;100.00;75003.41;4995720;28;20028;-77
2022/08/05 05:13:57;;;;;;;17.25;9.73;;;;;;;-148.88;100.00;75005.44;4995660;28;20026;-76
2022/08/05 05:16:23;;;;;;;15.73;9.85;;;;;;;-148.88;100.00;75003.41;4996012;28;20105;-75
2022/08/05 05:18:48;;;;;;;17.75;11.02;;;;;;;-148.88;100.00;74995.28;4995358;28;20027;-75
2022/08/05 05:21:13;;;;;;;23.45;11.10;;;;;;;-148.88;100.00;74997.31;4995595;28;20467;-75
2022/08/05 05:23:39;;;;;;;19.83;11.68;;;;;;;-148.88;100.00;74989.19;4995577;28;20026;-74
2022/08/05 05:26:04;;;;;;;19.17;10.65;;;;;;;-148.88;100.00;74997.31;4995212;28;20032;-75
2022/08/05 05:28:30;;;;;;;18.33;10.68;;;;;;;-148.88;100.00;75009.50;4995223;28;20026;-75
2022/08/05 05:30:55;;;;;;;16.92;10.98;;;;;;;-148.88;100.00;74997.31;4995188;28;20434;-75
2022/08/05 05:33:21;;;;;;;17.73;11.75;;;;;;;-148.88;100.00;75001.38;4995129;28;20486;-75
2022/08/05 05:35:47;;;;;;;17.10;11.73;;;;;;;-148.88;100.00;74985.13;4995125;28;20022;-75
2022/08/05 05:38:12;;;;;;;19.02;13.13;;;;;;;-148.88;100.00;74977.00;4995031;28;20057;-75
2022/08/05 05:40:38;;;;;;;20.38;13.35;;;;;;;-148.88;100.00;74981.06;4995012;28;20037;-74
2022/08/05 05:43:03;;;;;;;21.55;13.23;;;;;;;-148.88;100.00;74987.16;4994908;28;20392;-75
2022/08/05 05:45:29;;;;;;;21.30;12.55;;;;;;;-148.88;100.00;74997.31;4995095;28;20029;-77
2022/08/05 05:47:56;;;;;;;17.73;11.98;;;;;;;-148.88;100.00;75005.44;4994843;28;20113;-77
2022/08/05 05:50:21;;;;;;;21.00;13.02;;;;;;;-148.88;100.00;75044.03;4994941;28;20106;-77
2022/08/05 05:52:47;;;;;;;17.50;11.20;;;;;;;-148.88;100.00;75102.91;4994736;28;20035;-77
2022/08/05 05:55:14;;;;;;;18.75;11.68;;;;;;;-148.88;100.00;75115.09;4994667;28;20030;-77
2022/08/05 05:57:44;;;;;;;20.63;11.88;;;;;;;-148.88;100.00;75125.25;4994652;28;20034;-77
2022/08/05 06:00:14;;;;;;;17.50;11.35;;;;;;;-148.88;100.00;75141.50;4994523;28;20112;-77
2022/08/05 06:02:40;;;;;;;20.95;11.70;;;;;;;-148.88;100.00;75157.75;4994461;28;20037;-77
2022/08/05 06:05:07;;;;;;;18.70;12.63;;;;;;;-148.88;100.00;75163.84;4993650;28;20487;-78
2022/08/05 06:07:32;;;;;;;23.50;13.32;;;;;;;-148.88;100.00;75171.97;4994604;28;20474;-77
2022/08/05 06:09:57;;;;;;;24.90;13.80;;;;;;;-148.88;100.00;75194.31;4994796;28;20104;-75
2022/08/05 06:12:23;;;;;;;21.25;13.70;;;;;;;-148.88;100.00;75208.53;4994347;28;20029;-75
2022/08/05 06:14:48;;;;;;;20.50;13.90;;;;;;;-148.88;100.00;75212.59;4994295;28;20070;-75
2022/08/05 06:17:13;;;;;;;19.67;14.68;;;;;;;-148.88;100.00;75216.66;4993727;28;20029;-76
2022/08/05 06:19:39;;;;;;;21.83;14.93;;;;;;;-148.88;100.00;75210.56;4994710;28;20029;-76
2022/08/05 06:22:06;;;;;;;19.23;13.45;;;;;;;-148.88;100.00;75174.00;4993003;28;20462;-76
2022/08/05 06:24:32;;;;;;;19.90;14.30;;;;;;;-148.88;100.00;75155.72;4994222;28;20026;-76
2022/08/05 06:26:58;;;;;;;20.73;14.95;;;;;;;-148.88;100.00;75151.66;4994076;28;20428;-76
2022/08/05 06:29:24;;;;;;;18.48;12.93;;;;;;;-148.88;100.00;75151.66;4994172;28;20065;-76
2022/08/05 06:31:50;;;;;;;19.58;13.35;;;;;;;-148.88;100.00;75133.38;4993967;28;20033;-76
2022/08/05 06:34:15;;;;;;;21.45;13.77;;;;;;;-148.88;100.00;75119.16;4993986;28;20105;-76
2022/08/05 06:36:40;;;;;;;18.77;13.38;;;;;;;-148.88;100.00;75119.16;4994397;28;20022;-76
2022/08/05 06:39:06;;;;;;;20.67;13.98;;;;;;;-148.88;100.00;75100.88;4993974;28;20105;-76
2022/08/05 06:41:31;;;;;;;22.27;15.20;;;;;;;-148.88;100.00;75088.72;4993859;28;20041;-76
2022/08/05 06:43:56;;;;;;;20.45;14.75;;;;;;;-148.88;100.00;75094.81;4993885;28;20027;-77
2022/08/05 06:46:21;;;;;;;20.50;14.80;;;;;;;-148.88;100.00;75080.59;4993990;28;20045;-76
2022/08/05 06:48:47;;;;;;;23.30;15.60;;;;;;;-148.88;100.00;75090.72;5036288;23;20119;-84
2022/08/05 06:51:12;;;;;;;21.58;16.02;;;;;;;-148.88;100.00;75066.38;4993310;28;20035;-85
2022/08/05 06:53:38;;;;;;;22.88;15.40;;;;;;;-148.88;100.00;75058.25;4995503;28;20026;-85
2022/08/05 06:56:04;;;;;;;23.17;16.83;;;;;;;-148.88;100.00;75042.00;4994626;28;20022;-85
2022/08/05 06:58:30;;;;;;;21.40;16.92;;;;;;;-148.88;100.00;75062.31;4993241;28;20046;-86
2022/08/05 07:01:03;;;;;;;26.15;18.98;;;;;;;-148.88;100.00;75044.03;4973531;28;20038;-86
2022/08/05 07:03:29;;;;;;;26.00;19.52;;;;;;;-148.88;100.00;75025.75;4973228;28;20035;-86
2022/08/05 07:05:54;;;;;;;22.63;18.98;;;;;;;-148.88;100.00;75013.56;4985908;28;20027;-85
2022/08/05 07:08:23;;;;;;;23.27;18.45;;;;;;;-148.88;100.00;75005.44;4975063;28;20034;-87
2022/08/05 07:10:49;;;;;;;24.58;19.15;;;;;;;-148.88;100.00;75031.84;4992835;28;20061;-85
2022/08/05 07:18:58;;;;;;;24.90;18.67;;;;;;;-148.88;100.00;75042.00;4983840;28;20038;-88
2022/08/05 07:21:24;;;;;;;26.02;19.10;;;;;;;-148.88;100.00;75037.94;4993998;28;20037;-87
2022/08/05 07:23:49;;;;;;;21.90;17.60;;;;;;;-148.88;100.00;75044.03;4994109;28;20026;-87
2022/08/05 07:26:14;;;;;;;25.63;17.73;;;;;;;-148.88;100.00;75042.00;5009545;28;20023;-85
2022/08/05 07:28:40;;;;;;;17.90;14.75;;;;;;;-148.88;100.00;75064.34;4993373;28;20026;-87
2022/08/05 07:31:06;;;;;;;22.02;14.93;;;;;;;-148.88;100.00;75048.09;5012782;28;20030;-87
2022/08/05 07:33:32;;;;;;;20.15;14.75;;;;;;;-148.88;100.00;75033.88;4997689;28;20034;-86
2022/08/05 07:35:58;;;;;;;21.42;13.65;;;;;;;-148.88;100.00;75033.88;4997873;28;20026;-84
2022/08/05 07:38:24;;;;;;;16.65;13.23;;;;;;;-148.88;100.00;75066.38;5013006;28;20030;-86
2022/08/05 07:40:49;;;;;;;22.00;13.38;;;;;;;-148.88;100.00;75074.50;5012664;28;20141;-86
2022/08/05 07:43:15;;;;;;;21.02;14.00;;;;;;;-148.88;100.00;75076.53;5013092;28;20544;-86
2022/08/05 07:45:42;;;;;;;22.52;14.07;;;;;;;-148.88;100.00;75090.72;4997956;28;20025;-85
2022/08/05 07:48:07;;;;;;;18.50;13.23;;;;;;;-148.88;100.00;75084.66;5013394;28;20038;-85
2022/08/05 07:50:33;;;;;;;25.13;15.93;;;;;;;-148.88;100.00;75086.69;5013454;28;20084;-85
2022/08/05 07:52:58;;;;;;;27.80;17.00;;;;;;;-148.88;100.00;75088.72;4997603;28;20022;-87
2022/08/05 07:55:24;;;;;;;24.25;16.75;;;;;;;-148.88;100.00;75088.72;4997396;28;20034;-86
2022/08/05 07:57:50;;;;;;;26.02;18.58;;;;;;;-148.88;100.00;75102.91;4990262;28;20029;-88
2022/08/05 08:00:15;;;;;;;26.45;20.23;;;;;;;-148.88;100.00;75129.31;4993026;28;20033;-88
2022/08/05 08:02:43;;;;;;;28.67;20.83;;;;;;;-148.88;100.00;75123.22;4997540;28;20030;-85
2022/08/05 08:05:08;;;;;;;28.45;20.98;;;;;;;-148.88;100.00;75143.53;4996499;28;20028;-84
2022/08/05 08:07:33;;;;;;;24.20;18.50;;;;;;;-148.88;100.00;75151.66;4997353;28;20018;-84
2022/08/05 08:09:59;;;;;;;18.65;13.73;;;;;;;-148.88;100.00;75167.91;4998631;28;20109;-85
2022/08/05 08:12:25;;;;;;;17.42;11.93;;;;;;;-148.88;100.00;75143.53;4997268;28;20034;-85
2022/08/05 08:15:00;;;;;;;12.77;8.85;;;;;;;-148.88;100.00;75145.56;5014218;28;20411;-85
2022/08/05 08:17:25;;;;;;;12.18;8.40;;;;;;;-148.88;100.00;75123.22;5012914;28;20084;-86
2022/08/05 08:19:54;;;;;;;15.45;8.70;;;;;;;-148.88;100.00;75100.88;4997303;28;20409;-85
2022/08/05 08:22:27;;;;;;;12.30;8.88;;;;;;;-148.88;100.00;75096.81;4996317;28;20102;-85
2022/08/05 08:24:56;;;;;;;14.70;9.23;;;;;;;-148.88;100.00;75115.09;5013307;28;20042;-87
2022/08/05 08:27:21;;;;;;;14.27;8.73;;;;;;;-148.88;100.00;75133.38;5012937;28;20117;-86
2022/08/05 08:29:47;;;;;;;13.18;8.73;;;;;;;-148.88;100.00;75119.16;4997262;28;20037;-88
2022/08/05 08:32:15;;;;;;;10.27;8.10;;;;;;;-148.88;100.00;75098.84;4998314;28;20046;-83
2022/08/05 08:34:44;;;;;;;15.45;9.38;;;;;;;-148.88;100.00;75092.78;4997589;28;20065;-88
2022/08/05 08:37:09;;;;;;;14.40;8.52;;;;;;;-148.88;99.54;75080.59;5012372;28;20022;-85
2022/08/05 08:39:34;;;;;;;9.75;7.63;;;;;;;-148.88;99.03;75080.59;5012022;28;20029;-85
2022/08/05 08:42:00;;;;;;;11.30;7.40;;;;;;;-148.88;99.61;75054.19;5012761;28;20022;-83
2022/08/05 08:44:34;;;;;;;11.93;8.35;;;;;;;-148.88;99.04;75039.97;4997102;28;20029;-87
2022/08/05 08:47:03;;;;;;;15.82;9.40;;;;;;;-148.88;98.26;75046.06;4994265;28;20549;-86
2022/08/05 08:49:33;;;;;;;13.98;8.80;;;;;;;-148.88;99.04;75046.06;4995961;28;20054;-85
2022/08/05 08:52:07;;;;;;;12.77;9.43;;;;;;;-148.88;98.03;75062.31;4995080;28;20472;-84
2022/08/05 08:54:51;;;;;;;13.18;9.32;;;;;;;-148.88;98.22;75058.25;4998882;28;20108;-88
2022/08/05 08:57:16;;;;;;;16.25;11.77;;;;;;;-148.88;100.00;75119.16;4997237;28;20026;-87
2022/08/05 08:59:42;;;;;;;17.17;13.38;;;;;;;-148.88;100.00;75139.47;5012585;28;20075;-87
2022/08/05 09:02:09;;;;;;;19.02;13.35;;;;;;;-148.88;100.00;75155.72;4996309;28;20046;-88
2022/08/05 09:04:39;;;;;;;17.42;14.32;;;;;;;-148.88;100.00;75171.97;4995619;28;20027;-88
2022/08/05 09:07:05;;;;;;;18.38;14.32;;;;;;;-148.88;100.00;75180.09;4996592;28;20019;-87
2022/08/05 09:09:32;;;;;;;19.73;15.50;;;;;;;-148.88;100.00;75196.34;4997178;28;20489;-87
2022/08/05 09:11:58;;;;;;;20.10;15.07;;;;;;;-148.88;100.00;75188.22;4995982;28;20027;-86
2022/08/05 09:14:26;;;;;;;19.65;15.25;;;;;;;-148.88;100.00;75200.41;5012118;28;20092;-86
2022/08/05 09:16:59;;;;;;;20.30;14.77;;;;;;;-148.88;100.00;75204.47;5011392;28;20034;-87
2022/08/05 09:19:25;;;;;;;22.00;15.27;;;;;;;-148.88;100.00;75186.19;4995721;28;20025;-88
2022/08/05 09:21:50;;;;;;;24.40;15.57;;;;;;;-148.88;100.00;75192.28;4996893;28;20113;-86
2022/08/05 09:24:15;;;;;;;21.35;16.67;;;;;;;-148.88;100.00;75224.78;5011645;28;20408;-87
2022/08/05 09:26:46;;;;;;;24.30;16.83;;;;;;;-148.88;100.00;75236.97;5011234;28;20022;-87
2022/08/05 09:29:11;;;;;;;23.55;16.73;;;;;;;-148.88;100.00;75239.00;4994839;28;20036;-88
2022/08/05 09:31:42;;;;;;;19.88;16.45;;;;;;;-148.88;100.00;75239.00;4995914;28;20034;-88
2022/08/05 09:34:08;;;;;;;19.10;16.15;;;;;;;-148.88;100.00;75247.13;4994715;28;20022;-87
2022/08/05 09:36:51;;;;;;;24.02;17.27;;;;;;;-148.88;100.00;75253.22;4996109;28;20033;-85
2022/08/05 09:39:18;;;;;;;23.48;17.52;;;;;;;-148.88;100.00;75275.56;4995244;28;20400;-86
2022/08/05 09:41:58;;;;;;;22.73;17.92;;;;;;;-148.88;100.00;75293.81;5010964;28;20034;-85
2022/08/05 09:44:35;;;;;;;20.08;15.05;;;;;;;-148.88;100.00;75326.31;4995789;28;20065;-84
2022/08/05 09:47:10;;;;;;;17.80;13.15;;;;;;;-148.88;100.00;75336.47;4994548;28;20097;-85
2022/08/05 09:50:02;;;;;;;19.55;13.93;;;;;;;-148.88;100.00;75350.69;5010658;28;20034;-85
2022/08/05 09:52:32;;;;;;;16.75;13.75;;;;;;;-148.88;100.00;75358.81;4994797;28;20044;-85
2022/08/05 09:55:06;;;;;;;15.38;11.50;;;;;;;-148.88;100.00;75366.94;5010761;28;20022;-85
2022/08/05 09:57:39;;;;;;;14.88;11.50;;;;;;;-148.88;100.00;75377.09;5010966;28;20023;-85
2022/08/05 10:00:05;;;;;;;;;;;;;;;-148.88;100.00;75383.19;4996324;28;20066;-86
2022/08/05 10:02:35;;;;;;;16.38;11.95;;;;;;;-148.88;100.00;75362.88;4995691;28;20312;-84
2022/08/05 10:05:12;;;;;;;14.15;11.20;;;;;;;-148.88;100.00;75362.88;4994006;28;20034;-85
2022/08/05 10:07:58;;;;;;;16.65;12.10;;;;;;;-148.88;100.00;75342.56;4995280;28;20042;-85
2022/08/05 10:10:30;;;;;;;13.65;11.73;;;;;;;-148.88;100.00;75338.50;5010321;28;20117;-85
2022/08/05 10:13:04;;;;;;;15.75;11.65;;;;;;;-148.88;100.00;75330.38;4995655;28;20030;-85
2022/08/05 10:15:35;;;;;;;17.75;12.98;;;;;;;-148.88;100.00;75334.44;4994525;28;20026;-84
2022/08/05 10:18:21;;;;;;;17.38;12.05;;;;;;;-148.88;100.00;75322.25;5010025;28;20026;-85
2022/08/05 10:20:52;;;;;;;16.85;12.05;;;;;;;-148.88;100.00;75318.19;4994246;28;20088;-85
2022/08/05 10:23:21;;;;;;;14.70;12.60;;;;;;;-148.88;100.00;75303.97;4995375;28;20038;-85
2022/08/05 10:25:53;;;;;;;14.88;11.23;;;;;;;-148.88;100.00;75295.84;5010398;28;20105;-85
2022/08/05 10:28:19;;;;;;;13.10;10.77;;;;;;;-148.88;100.00;75289.75;5010273;28;20022;-85
2022/08/05 10:31:10;;;;;;;12.65;9.60;;;;;;;-148.88;100.00;75265.41;4995219;28;20080;-85
2022/08/05 10:33:42;;;;;;;12.18;8.57;;;;;;;-148.88;100.00;75273.53;4995544;28;20030;-85
2022/08/05 10:36:07;;;;;;;12.85;8.60;;;;;;;-148.88;100.00;75273.53;4995224;28;20018;-86
2022/08/05 10:38:35;;;;;;;9.68;6.15;;;;;;;-148.88;100.00;75301.94;5010452;28;20019;-86
2022/08/05 10:41:46;;;;;;;7.95;6.32;;;;;;;-148.88;100.00;75322.25;5010562;28;20026;-85
2022/08/05 10:44:14;;;;;;;8.85;5.50;;;;;;;-148.88;100.00;75344.59;4919814;29;20095;-85
2022/08/05 10:46:49;;;;;;;9.40;6.05;;;;;;;-148.88;100.00;75342.56;4983440;28;20041;-86
2022/08/05 10:49:14;;;;;;;10.23;6.15;;;;;;;-148.88;100.00;75336.47;4993337;28;20117;-87
2022/08/05 10:51:43;;;;;;;9.82;6.75;;;;;;;-148.88;100.00;75346.63;4994594;28;20058;-87
2022/08/05 10:54:09;;;;;;;10.73;7.78;;;;;;;-148.88;100.00;75316.16;5009700;28;20033;-86
2022/08/05 10:56:57;;;;;;;11.32;7.35;;;;;;;-148.88;100.00;75293.81;5009607;28;20033;-86
2022/08/05 10:59:28;;;;;;;10.27;7.50;;;;;;;-148.88;100.00;75316.16;5009849;28;20576;-86
2022/08/05 11:02:11;;;;;;;8.93;6.88;;;;;;;-148.88;100.00;75326.31;4993492;28;20107;-86
2022/08/05 11:04:47;;;;;;;7.57;6.72;;;;;;;-148.88;100.00;75326.31;4993915;28;20092;-86
2022/08/05 11:07:16;;;;;;;10.40;7.75;;;;;;;-148.88;100.00;75312.09;4994225;28;20109;-86
2022/08/05 11:09:46;;;;;;;14.45;7.75;;;;;;;-148.88;100.00;75310.06;5009690;28;20050;-86
2022/08/05 11:12:35;;;;;;;9.48;6.60;;;;;;;-148.88;100.00;75356.78;4994223;28;20081;-86
2022/08/05 11:15:14;;;;;;;9.43;6.75;;;;;;;-148.88;100.00;75356.78;5009106;28;20393;-86